Harrisburg, Texas
Current Conditions -  °F | °C
As of 2:35 AM on Saturday 29 Nov 2014 (Local Time) from KJAS Reporting Station
Clear Clear  
Wind Chill: 58°   Ceiling: Unl
Heat Index: 58°   Visibility: 10mi
Dew Point: 55°   Wind: 5mph
Humidity: 92%   Direction: 170°S
Pressure: 30.13"   Gusts: NA
Location:  30.9529°N, 94.0707°W
Report Text: KJAS 290835Z AUTO 17004KT 10SM CLR 14/13 A3013 RMK AO2 T01420130
Loading
Personal Weather Stations






























Interactive Weather Map New forecast layout! Learn more

10-Day Weather Forecast

Advertisements
Track Severe Weather on mobile